Skip to content
You are here: Gozo Weather
Gozo Weather Station for the very latest live weather conditions from Gozo and Malta
 
 TIME   TEMPERATURE   WINDSPEED   DIRECTION   HUMIDITY   BAROMETER   RAINFALL 
4:20 16.1°C (61.0°F) 22.2 kmh (13.8 mph) WNW 63% 1013.0hPa (29.91 inHg) 0.0mm (0.00 in.)
3:20 17.1°C (62.8 °F) 27.8 kmh (17.3 mph) NNE 65% 1013.0hPa (29.91 inHg) 0.0mm (0.00 in.)
2:20 17.3°C (63.1 °F) 20.4 kmh (12.7 mph) WNW 68% 1014.0hPa (29.94 inHg) 0.0mm (0.00 in.)
1:20 16.9°C (62.4 °F) 18.5 kmh (11.5 mph) NW 70% 1015.0hPa (29.97 inHg) 0.0mm (0.00 in.)
12:20 16.7°C (62.1 °F) 25.9 kmh (16.1 mph) NNW 72% 1015.0hPa (29.97 inHg) 0.0mm (0.00 in.)
11:14 16.3°C (61.3 °F) 18.5 kmh (11.5 mph) N 74% 1015.0hPa (29.97 inHg) 0.0mm (0.00 in.)
10:14 15.9°C (60.6 °F) 18.5 kmh (11.5 mph) N 76% 1014.0hPa (29.94 inHg) 0.0mm (0.00 in.)
9:14 15.4°C (59.7 °F) 22.2 kmh (13.8 mph) W 77% 1014.0hPa (29.94 inHg) 0.0mm (0.00 in.)
8:06 14.9°C (58.8 °F) 31.5 kmh (19.6 mph) NNE 76% 1013.0hPa (29.91 inHg) 0.0mm (0.00 in.)
7:06 13.8°C (56.8 °F) 25.9 kmh (16.1 mph) N 77% 1013.0hPa (29.91 inHg) 0.0mm (0.00 in.)
6:06 13.7°C (56.7 °F) 31.5 kmh (19.6 mph) N 77% 1013.0hPa (29.91 inHg) 0.0mm (0.00 in.)
5:06 13.6°C (56.5 °F) 35.2 kmh (21.9 mph) NNW 78% 1013.0hPa (29.91 inHg) 0.0mm (0.00 in.)
4:06 13.5°C (56.3 °F) 29.6 kmh (18.4 mph) NNE 80% 1013.0hPa (29.91 inHg) 0.0mm (0.00 in.)
3:06 13.6°C (56.5 °F) 27.8 kmh (17.3 mph) NNE 80% 1014.0hPa (29.94 inHg) 0.0mm (0.00 in.)
2:06 13.9°C (57.0 °F) 18.5 kmh (11.5 mph) NW 79% 1015.0hPa (29.97 inHg) 0.0mm (0.00 in.)
1:06 13.9°C (57.0 °F) 14.8 kmh (9.2 mph) WNW 80% 1015.0hPa (29.97 inHg) 0.0mm (0.00 in.)
12:06 14.0°C (57.2 °F) 27.8 kmh (17.3 mph) NNW 79% 1015.0hPa (29.97 inHg) 0.0mm (0.00 in.)
11:06 14.1°C (57.4 °F) 31.5 kmh (19.6 mph) NNE 78% 1016.0hPa (30.00 inHg) 0.0mm (0.00 in.)
10:06 14.2°C (57.6 °F) 20.4 kmh (12.7 mph) NNW 76% 1016.0hPa (30.00 inHg) 0.0mm (0.00 in.)
9:06 14.3°C (57.7 °F) 18.5 kmh (11.5 mph) N 74% 1015.0hPa (29.97 inHg) 0.0mm (0.00 in.)
8:06 14.9°C (58.8 °F) 11.1 kmh (6.9 mph) NNW 73% 1015.0hPa (29.97 inHg) 0.0mm (0.00 in.)
7:06 15.3°C (59.5 °F) 13.0 kmh (8.1 mph) W 72% 1015.0hPa (29.97 inHg) 0.0mm (0.00 in.)
6:06 15.6°C (60.1 °F) 13.0 kmh (8.1 mph) NW 72% 1015.0hPa (29.97 inHg) 0.0mm (0.00 in.)
5:06 16.0°C (60.8 °F) 11.1 kmh (6.9 mph) WSW 72% 1015.0hPa (29.97 inHg) 0.0mm (0.00 in.)

You need the latest version of Flash Player to view some of our content.


Why not download and install the latest version now?
It will only take you a moment and will ensure that you can view all the latest flash designed websites.

Translate this page

Animated Satellite

Click per aprire http://www.gozo.ws/Animation.php
copyright 2015 EUMETSAT

European Lightning Activity


Please click image for full size

Sponsored Links